Time;durP1;ratioP1;P1;durP2;ratioP2;P2;SDS_P1;SDS_P2;PMS_P1;PMS_P2;Temp;Humidity;BMP_temperature;BMP_pressure;BME280_temperature;BME280_humidity;BME280_pressure;Samples;Min_cycle;Max_cycle;Signal;HPM_P1;HPM_P2
2023/01/28 00:02:23;;;;;;;;;;;;;;;;;;102808;1334;40919;-41
2023/01/28 00:04:52;;;;;;;;;;;;;;;;;;102970;1330;44205;-42
2023/01/28 00:07:23;;;;;;;;;;;;;;;;;;103138;1338;43153;-41
2023/01/28 00:09:55;;;;;;;;;;;;;;;;;;103128;1331;39262;-41
2023/01/28 00:12:26;;;;;;;;;;;;;;;;;;103116;1338;41276;-41
2023/01/28 00:14:57;;;;;;;;;;;;;;;;;;103222;1328;44062;-41
2023/01/28 00:17:26;;;;;;;;;;;;;;;;;;103321;1328;42061;-41
2023/01/28 00:19:56;;;;;;;;;;;;;;;;;;103337;1327;38309;-41
2023/01/28 00:22:26;;;;;;;;;;;;;;;;;;103332;1327;40479;-41
2023/01/28 00:24:55;;;;;;;;;;;;;;;;;;103011;1328;43423;-42
2023/01/28 00:27:24;;;;;;;;;;;;;;;;;;102839;1344;41872;-41
2023/01/28 00:29:54;;;;;;;;;;;;;;;;;;102801;1334;38395;-39
2023/01/28 00:32:23;;;;;;;;;;;;;;;;;;102819;1333;40348;-38
2023/01/28 00:34:55;;;;;;;;;;;;;;;;;;103023;1328;43834;-38
2023/01/28 00:37:26;;;;;;;;;;;;;;;;;;103356;1327;42998;-38
2023/01/28 00:39:58;;;;;;;;;;;;;;;;;;103342;1327;38031;-38
2023/01/28 00:42:29;;;;;;;;;;;;;;;;;;103351;1343;42991;-38
2023/01/28 00:44:58;;;;;;;;;;;;;;;;;;103109;1338;43584;-38
2023/01/28 00:47:30;;;;;;;;;;;;;;;;;;102741;1334;41945;-38
2023/01/28 00:50:02;;;;;;;;;;;;;;;;;;102749;1334;38492;-38
2023/01/28 00:52:31;;;;;;;;;;;;;;;;;;102764;1334;40837;-38
2023/01/28 00:55:03;;;;;;;;;;;;;;;;;;102913;1328;43899;-38
2023/01/28 00:57:32;;;;;;;;;;;;;;;;;;103347;1328;42057;-38
2023/01/28 01:00:03;;;;;;;;;;;;;;;;;;103362;1327;38198;-38
2023/01/28 01:02:34;;;;;;;;;;;;;;;;;;103371;1328;40905;-38
2023/01/28 01:05:06;;;;;;;;;;;;;;;;;;103147;1334;44793;-38
2023/01/28 01:07:40;;;;;;;;;;;;;;;;;;102768;1339;42235;-38
2023/01/28 01:10:19;;;;;;;;;;;;;;;;;;102812;1334;39574;-39
2023/01/28 01:12:51;;;;;;;;;;;;;;;;;;102785;1342;41177;-38
2023/01/28 01:15:21;;;;;;;;;;;;;;;;;;102777;1331;44333;-38
2023/01/28 01:17:53;;;;;;;;;;;;;;;;;;103360;1327;42155;-38
2023/01/28 01:20:24;;;;;;;;;;;;;;;;;;102780;1334;39518;-38
2023/01/28 01:22:55;;;;;;;;;;;;;;;;;;102775;1334;42072;-38
2023/01/28 01:25:26;;;;;;;;;;;;;;;;;;102814;1333;44205;-38
2023/01/28 01:27:56;;;;;;;;;;;;;;;;;;102967;1330;195503;-38
2023/01/28 01:30:27;;;;;;;;;;;;;;;;;;103078;1331;38263;-38
2023/01/28 01:32:57;;;;;;;;;;;;;;;;;;103119;1345;41439;-38
2023/01/28 01:35:32;;;;;;;;;;;;;;;;;;103049;1334;45218;-38
2023/01/28 01:38:06;;;;;;;;;;;;;;;;;;102787;1334;42119;-38
2023/01/28 01:40:37;;;;;;;;;;;;;;;;;;102785;1334;40801;-39
2023/01/28 01:43:17;;;;;;;;;;;;;;;;;;102788;1341;40720;-38
2023/01/28 01:45:51;;;;;;;;;;;;;;;;;;102818;1330;43638;-38
2023/01/28 01:48:24;;;;;;;;;;;;;;;;;;103097;1331;42142;-38
2023/01/28 01:50:56;;;;;;;;;;;;;;;;;;103136;1330;39383;-38
2023/01/28 01:53:27;;;;;;;;;;;;;;;;;;103094;1340;40996;-38
2023/01/28 01:56:01;;;;;;;;;;;;;;;;;;103043;1334;44024;-38
2023/01/28 01:58:38;;;;;;;;;;;;;;;;;;102753;1341;42189;-38
2023/01/28 02:01:08;;;;;;;;;;;;;;;;;;102802;1334;39326;-38
2023/01/28 02:03:47;;;;;;;;;;;;;;;;;;102777;1334;41036;-38
2023/01/28 02:06:17;;;;;;;;;;;;;;;;;;102758;1328;175861;-38
2023/01/28 02:08:53;;;;;;;;;;;;;;;;;;103359;1328;41665;-38
2023/01/28 02:11:22;;;;;;;;;;;;;;;;;;103352;1327;40634;-38
2023/01/28 02:13:56;;;;;;;;;;;;;;;;;;103240;1338;175499;-38
2023/01/28 02:16:28;;;;;;;;;;;;;;;;;;103188;1331;43806;-39
2023/01/28 02:19:00;;;;;;;;;;;;;;;;;;102995;1331;42381;-38
2023/01/28 02:22:02;;;;;;;;;;;;;;;;;;102739;1334;39243;-38
2023/01/28 02:24:55;;;;;;;;;;;;;;;;;;102776;1349;40856;-38
2023/01/28 02:27:33;;;;;;;;;;;;;;;;;;102637;1331;44131;-38
2023/01/28 02:30:09;;;;;;;;;;;;;;;;;;102835;1333;42364;-38
2023/01/28 02:32:42;;;;;;;;;;;;;;;;;;102758;1334;39292;-38
2023/01/28 02:35:24;;;;;;;;;;;;;;;;;;102728;1334;42165;-38
2023/01/28 02:38:02;;;;;;;;;;;;;;;;;;103100;1328;44054;-38
2023/01/28 02:41:00;;;;;;;;;;;;;;;;;;103343;1327;42188;-38
2023/01/28 02:43:33;;;;;;;;;;;;;;;;;;103358;1327;39395;-38
2023/01/28 02:49:07;;;;;;;;;;;;;;;;;;103157;1329;175495;-38
2023/01/28 02:51:45;;;;;;;;;;;;;;;;;;103225;1328;175482;-38
2023/01/28 02:54:22;;;;;;;;;;;;;;;;;;103330;1344;39232;-38
2023/01/28 02:56:57;;;;;;;;;;;;;;;;;;103361;1328;41238;-41
2023/01/28 02:59:32;;;;;;;;;;;;;;;;;;102509;1338;175884;-43
2023/01/28 03:02:08;;;;;;;;;;;;;;;;;;102839;1333;42214;-43
2023/01/28 03:04:43;;;;;;;;;;;;;;;;;;102825;1334;39393;-42
2023/01/28 03:07:17;;;;;;;;;;;;;;;;;;102812;1334;40963;-43
2023/01/28 03:09:50;;;;;;;;;;;;;;;;;;102819;1344;51446;-43
2023/01/28 03:38:16;;;;;;;;;;;;;;;;;;103048;1330;39373;-42
2023/01/28 03:40:59;;;;;;;;;;;;;;;;;;102753;1337;41343;-41
2023/01/28 03:43:31;;;;;;;;;;;;;;;;;;102834;1334;43958;-41
2023/01/28 03:46:00;;;;;;;;;;;;;;;;;;102818;1334;43583;-43
2023/01/28 03:48:31;;;;;;;;;;;;;;;;;;102864;1334;39359;-41
2023/01/28 03:51:00;;;;;;;;;;;;;;;;;;102834;1333;40746;-41
2023/01/28 03:53:29;;;;;;;;;;;;;;;;;;102805;1334;45968;-41
2023/01/28 03:55:58;;;;;;;;;;;;;;;;;;102832;1349;42136;-41
2023/01/28 03:58:44;;;;;;;;;;;;;;;;;;102685;1334;175502;-42
2023/01/28 04:01:15;;;;;;;;;;;;;;;;;;103094;1331;40868;-41
2023/01/28 04:03:44;;;;;;;;;;;;;;;;;;103133;1344;43483;-41
2023/01/28 04:06:19;;;;;;;;;;;;;;;;;;103123;1344;42134;-42
2023/01/28 04:08:52;;;;;;;;;;;;;;;;;;103008;1331;39256;-41
2023/01/28 04:11:24;;;;;;;;;;;;;;;;;;102671;1333;175560;-42
2023/01/28 04:13:54;;;;;;;;;;;;;;;;;;102755;1334;44062;-41
2023/01/28 04:16:26;;;;;;;;;;;;;;;;;;102771;1340;42112;-41
2023/01/28 04:18:58;;;;;;;;;;;;;;;;;;102835;1328;38086;-41
2023/01/28 04:21:27;;;;;;;;;;;;;;;;;;103337;1337;40936;-41
2023/01/28 04:23:57;;;;;;;;;;;;;;;;;;103315;1328;43899;-40
2023/01/28 04:26:31;;;;;;;;;;;;;;;;;;103364;1344;42293;-41
2023/01/28 04:29:00;;;;;;;;;;;;;;;;;;103295;1327;38993;-42
2023/01/28 04:31:34;;;;;;;;;;;;;;;;;;102804;1340;40742;-43
2023/01/28 04:34:04;;;;;;;;;;;;;;;;;;102836;1334;43941;-42
2023/01/28 04:36:34;;;;;;;;;;;;;;;;;;102778;1334;43425;-42
2023/01/28 04:39:03;;;;;;;;;;;;;;;;;;102792;1341;38211;-41
2023/01/28 04:41:37;;;;;;;;;;;;;;;;;;103021;1341;40662;-43
2023/01/28 04:44:09;;;;;;;;;;;;;;;;;;103331;1327;43864;-41
2023/01/28 04:46:38;;;;;;;;;;;;;;;;;;103237;1327;152539;-40
2023/01/28 04:49:08;;;;;;;;;;;;;;;;;;103341;1328;38266;-42
2023/01/28 04:51:40;;;;;;;;;;;;;;;;;;103071;1330;48292;-41
2023/01/28 04:54:10;;;;;;;;;;;;;;;;;;103114;1330;43963;-43
2023/01/28 04:56:39;;;;;;;;;;;;;;;;;;103013;1329;175868;-41
2023/01/28 04:59:08;;;;;;;;;;;;;;;;;;103091;1329;38055;-41
2023/01/28 05:01:37;;;;;;;;;;;;;;;;;;103325;1327;40381;-41
2023/01/28 05:04:09;;;;;;;;;;;;;;;;;;103354;1327;43516;-40
2023/01/28 05:06:41;;;;;;;;;;;;;;;;;;103334;1328;41993;-41
2023/01/28 05:09:11;;;;;;;;;;;;;;;;;;103366;1344;39339;-42
2023/01/28 05:11:40;;;;;;;;;;;;;;;;;;102817;1334;41799;-42
2023/01/28 05:14:10;;;;;;;;;;;;;;;;;;102759;1343;43899;-41
2023/01/28 05:16:39;;;;;;;;;;;;;;;;;;102788;1334;41943;-41
2023/01/28 05:19:08;;;;;;;;;;;;;;;;;;102758;1334;38231;-43
2023/01/28 05:21:39;;;;;;;;;;;;;;;;;;103140;1327;40623;-41
2023/01/28 05:24:10;;;;;;;;;;;;;;;;;;103331;1328;44952;-41
2023/01/28 05:26:42;;;;;;;;;;;;;;;;;;103374;1328;41908;-44
2023/01/28 05:29:14;;;;;;;;;;;;;;;;;;103326;1336;39291;-41
2023/01/28 05:31:43;;;;;;;;;;;;;;;;;;102949;1334;40417;-41
2023/01/28 05:34:16;;;;;;;;;;;;;;;;;;102770;1343;44127;-41
2023/01/28 05:36:47;;;;;;;;;;;;;;;;;;102806;1343;42280;-41
2023/01/28 05:39:18;;;;;;;;;;;;;;;;;;102832;1334;39325;-42
2023/01/28 05:41:52;;;;;;;;;;;;;;;;;;102995;1331;40914;-41
2023/01/28 05:44:26;;;;;;;;;;;;;;;;;;102790;1334;44078;-42
2023/01/28 05:46:57;;;;;;;;;;;;;;;;;;102786;1341;42043;-41
2023/01/28 05:49:27;;;;;;;;;;;;;;;;;;102773;1334;39136;-42
2023/01/28 05:51:56;;;;;;;;;;;;;;;;;;102914;1330;40499;-41
2023/01/28 05:54:25;;;;;;;;;;;;;;;;;;103115;1331;45634;-41
2023/01/28 05:56:57;;;;;;;;;;;;;;;;;;103096;1337;41745;-41
2023/01/28 05:59:29;;;;;;;;;;;;;;;;;;103081;1331;39392;-41
2023/01/28 06:02:01;;;;;;;;;;;;;;;;;;102922;1334;40876;-41
2023/01/28 06:04:30;;;;;;;;;;;;;;;;;;102730;1344;44203;-41
2023/01/28 06:07:05;;;;;;;;;;;;;;;;;;102761;1334;42268;-41
2023/01/28 06:09:34;;;;;;;;;;;;;;;;;;102779;1341;39074;-41
2023/01/28 06:12:04;;;;;;;;;;;;;;;;;;102883;1331;40507;-42
2023/01/28 06:14:33;;;;;;;;;;;;;;;;;;103135;1331;44737;-44
2023/01/28 06:17:05;;;;;;;;;;;;;;;;;;103112;1331;43069;-41
2023/01/28 06:19:35;;;;;;;;;;;;;;;;;;102998;1345;175459;-43
2023/01/28 06:22:04;;;;;;;;;;;;;;;;;;102932;1334;41676;-41
2023/01/28 06:24:41;;;;;;;;;;;;;;;;;;102766;1334;44097;-42
2023/01/28 06:27:17;;;;;;;;;;;;;;;;;;102751;1343;42105;-43
2023/01/28 06:29:48;;;;;;;;;;;;;;;;;;102787;1334;39375;-41
2023/01/28 06:32:17;;;;;;;;;;;;;;;;;;102885;1330;41099;-41
2023/01/28 06:34:47;;;;;;;;;;;;;;;;;;103011;1330;175817;-41
2023/01/28 06:37:20;;;;;;;;;;;;;;;;;;103006;1336;175496;-44
2023/01/28 06:39:51;;;;;;;;;;;;;;;;;;103057;1337;40733;-42
2023/01/28 06:42:30;;;;;;;;;;;;;;;;;;102945;1331;41062;-42
2023/01/28 06:45:05;;;;;;;;;;;;;;;;;;102754;1334;43921;-41
2023/01/28 06:47:38;;;;;;;;;;;;;;;;;;102769;1334;42073;-42
2023/01/28 06:50:10;;;;;;;;;;;;;;;;;;102785;1342;39545;-42
2023/01/28 06:52:40;;;;;;;;;;;;;;;;;;102915;1331;40963;-41
2023/01/28 06:55:12;;;;;;;;;;;;;;;;;;103118;1330;43999;-42
2023/01/28 06:57:44;;;;;;;;;;;;;;;;;;103095;1342;42223;-41
2023/01/28 07:00:15;;;;;;;;;;;;;;;;;;103089;1330;38191;-41
2023/01/28 07:02:44;;;;;;;;;;;;;;;;;;102972;1337;41020;-41
2023/01/28 07:05:18;;;;;;;;;;;;;;;;;;102761;1349;43950;-42
2023/01/28 07:07:51;;;;;;;;;;;;;;;;;;102753;1334;42320;-43
2023/01/28 07:10:21;;;;;;;;;;;;;;;;;;102755;1334;39704;-43
2023/01/28 07:12:56;;;;;;;;;;;;;;;;;;102823;1331;41553;-40
2023/01/28 07:15:25;;;;;;;;;;;;;;;;;;103111;1341;43487;-39
2023/01/28 07:17:59;;;;;;;;;;;;;;;;;;103075;1336;42275;-40
2023/01/28 07:20:32;;;;;;;;;;;;;;;;;;103099;1331;39414;-45
2023/01/28 07:23:01;;;;;;;;;;;;;;;;;;102962;1331;40877;-49
2023/01/28 07:25:30;;;;;;;;;;;;;;;;;;102774;1340;43740;-44
2023/01/28 07:28:00;;;;;;;;;;;;;;;;;;102786;1334;43004;-44
2023/01/28 07:30:31;;;;;;;;;;;;;;;;;;102813;1334;38235;-45
2023/01/28 07:33:01;;;;;;;;;;;;;;;;;;102871;1334;40739;-45
2023/01/28 07:35:32;;;;;;;;;;;;;;;;;;102781;1335;45103;-49
2023/01/28 07:38:01;;;;;;;;;;;;;;;;;;102776;1339;41719;-45
2023/01/28 07:40:31;;;;;;;;;;;;;;;;;;102803;1334;38438;-44
2023/01/28 07:43:00;;;;;;;;;;;;;;;;;;102818;1331;40677;-45
2023/01/28 07:45:32;;;;;;;;;;;;;;;;;;103141;1330;44219;-44
2023/01/28 07:48:06;;;;;;;;;;;;;;;;;;103091;1331;42492;-45
2023/01/28 07:50:36;;;;;;;;;;;;;;;;;;103113;1330;39253;-44
2023/01/28 07:53:07;;;;;;;;;;;;;;;;;;103023;1334;40873;-45
2023/01/28 07:55:38;;;;;;;;;;;;;;;;;;102827;1344;44023;-46
2023/01/28 07:58:12;;;;;;;;;;;;;;;;;;102797;1334;42961;-45
2023/01/28 08:00:42;;;;;;;;;;;;;;;;;;102829;1344;39319;-45
2023/01/28 08:03:16;;;;;;;;;;;;;;;;;;102818;1334;40846;-44
2023/01/28 08:05:51;;;;;;;;;;;;;;;;;;103337;1328;50161;-47
2023/01/28 08:08:21;;;;;;;;;;;;;;;;;;103333;1327;41956;-44
2023/01/28 08:10:50;;;;;;;;;;;;;;;;;;103302;1344;38234;-46
2023/01/28 08:13:22;;;;;;;;;;;;;;;;;;103318;1328;41058;-45
2023/01/28 08:15:55;;;;;;;;;;;;;;;;;;103261;1327;51030;-41
2023/01/28 08:18:34;;;;;;;;;;;;;;;;;;103340;1337;42449;-43
2023/01/28 08:21:04;;;;;;;;;;;;;;;;;;103329;1327;39234;-43
2023/01/28 08:23:33;;;;;;;;;;;;;;;;;;103308;1327;40440;-42
2023/01/28 08:26:03;;;;;;;;;;;;;;;;;;102751;1337;44744;-42
2023/01/28 08:28:33;;;;;;;;;;;;;;;;;;102642;1346;42030;-42
2023/01/28 08:31:05;;;;;;;;;;;;;;;;;;102641;1336;38226;-43
2023/01/28 08:33:39;;;;;;;;;;;;;;;;;;102630;1337;40882;-42
2023/01/28 08:36:12;;;;;;;;;;;;;;;;;;103252;1328;43737;-42
2023/01/28 08:38:42;;;;;;;;;;;;;;;;;;103351;1344;43405;-43
2023/01/28 08:41:14;;;;;;;;;;;;;;;;;;103389;1340;39357;-42
2023/01/28 08:43:43;;;;;;;;;;;;;;;;;;103380;1327;40699;-42
2023/01/28 08:46:14;;;;;;;;;;;;;;;;;;102817;1334;44197;-42
2023/01/28 08:48:43;;;;;;;;;;;;;;;;;;102798;1337;41678;-42
2023/01/28 08:51:12;;;;;;;;;;;;;;;;;;102749;1348;38478;-43
2023/01/28 08:53:42;;;;;;;;;;;;;;;;;;102747;1341;40912;-42
2023/01/28 08:56:14;;;;;;;;;;;;;;;;;;103021;1330;44168;-42
2023/01/28 08:58:43;;;;;;;;;;;;;;;;;;102767;1334;42683;-43
2023/01/28 09:01:15;;;;;;;;;;;;;;;;;;102679;1334;175364;-42
2023/01/28 09:03:44;;;;;;;;;;;;;;;;;;102737;1333;40869;-43
2023/01/28 09:06:13;;;;;;;;;;;;;;;;;;102986;1329;43724;-42
2023/01/28 09:08:45;;;;;;;;;;;;;;;;;;103109;1330;41850;-43
2023/01/28 09:11:19;;;;;;;;;;;;;;;;;;103114;1331;39231;-42
2023/01/28 09:13:49;;;;;;;;;;;;;;;;;;103111;1331;41152;-45
2023/01/28 09:16:21;;;;;;;;;;;;;;;;;;102725;1334;175445;-42
2023/01/28 09:18:52;;;;;;;;;;;;;;;;;;102815;1344;42497;-42
2023/01/28 09:21:25;;;;;;;;;;;;;;;;;;102780;1342;39612;-42
2023/01/28 09:23:57;;;;;;;;;;;;;;;;;;102769;1341;41650;-42
2023/01/28 09:26:29;;;;;;;;;;;;;;;;;;103063;1327;44026;-41
2023/01/28 09:28:59;;;;;;;;;;;;;;;;;;103349;1327;42719;-43
2023/01/28 09:31:31;;;;;;;;;;;;;;;;;;103339;1328;38227;-42
2023/01/28 09:34:00;;;;;;;;;;;;;;;;;;103377;1327;41066;-42
2023/01/28 09:36:36;;;;;;;;;;;;;;;;;;102940;1334;45149;-42
2023/01/28 09:39:09;;;;;;;;;;;;;;;;;;102737;1343;42204;-43
2023/01/28 09:41:52;;;;;;;;;;;;;;;;;;102720;1334;39340;-43
2023/01/28 09:44:33;;;;;;;;;;;;;;;;;;102734;1334;40982;-42
2023/01/28 09:47:04;;;;;;;;;;;;;;;;;;103126;1328;44080;-40
2023/01/28 09:49:38;;;;;;;;;;;;;;;;;;103354;1328;42245;-40
2023/01/28 09:52:15;;;;;;;;;;;;;;;;;;103387;1328;39513;-48
2023/01/28 09:54:49;;;;;;;;;;;;;;;;;;103357;1328;40878;-46
2023/01/28 09:57:22;;;;;;;;;;;;;;;;;;102895;1328;47337;-47
2023/01/28 09:59:53;;;;;;;;;;;;;;;;;;102741;1334;42238;-45
2023/01/28 10:02:39;;;;;;;;;;;;;;;;;;102804;1334;41478;-38
2023/01/28 10:05:17;;;;;;;;;;;;;;;;;;102743;1344;41207;-39
2023/01/28 10:07:57;;;;;;;;;;;;;;;;;;103255;1328;44117;-43
2023/01/28 10:10:31;;;;;;;;;;;;;;;;;;103351;1337;42131;-43
2023/01/28 10:13:05;;;;;;;;;;;;;;;;;;103395;1328;39727;-42
2023/01/28 10:16:01;;;;;;;;;;;;;;;;;;103365;1335;40891;-43
2023/01/28 10:18:35;;;;;;;;;;;;;;;;;;102435;1337;51965;-44
2023/01/28 10:21:10;;;;;;;;;;;;;;;;;;102638;1344;42104;-46
2023/01/28 10:23:54;;;;;;;;;;;;;;;;;;102637;1337;39571;-42
2023/01/28 10:26:27;;;;;;;;;;;;;;;;;;102636;1337;41450;-42
2023/01/28 10:29:00;;;;;;;;;;;;;;;;;;102965;1328;50454;-45
2023/01/28 10:31:32;;;;;;;;;;;;;;;;;;102781;1333;42469;-47
2023/01/28 10:34:03;;;;;;;;;;;;;;;;;;102775;1349;39330;-40
2023/01/28 10:36:34;;;;;;;;;;;;;;;;;;102759;1334;40919;-40
2023/01/28 10:39:07;;;;;;;;;;;;;;;;;;103087;1331;43983;-42
2023/01/28 10:41:37;;;;;;;;;;;;;;;;;;103127;1329;42238;-42
2023/01/28 10:44:19;;;;;;;;;;;;;;;;;;103109;1340;40566;-42
2023/01/28 10:46:51;;;;;;;;;;;;;;;;;;103102;1340;41083;-42
2023/01/28 10:49:26;;;;;;;;;;;;;;;;;;102617;1334;205124;-42
2023/01/28 10:51:55;;;;;;;;;;;;;;;;;;102778;1337;42475;-48
2023/01/28 10:54:29;;;;;;;;;;;;;;;;;;102776;1334;40795;-46
2023/01/28 10:57:04;;;;;;;;;;;;;;;;;;102750;1334;41172;-45
2023/01/28 10:59:40;;;;;;;;;;;;;;;;;;103368;1327;44265;-45
2023/01/28 11:02:31;;;;;;;;;;;;;;;;;;103317;1338;42194;-46
2023/01/28 11:05:06;;;;;;;;;;;;;;;;;;103343;1344;40366;-46
2023/01/28 11:07:38;;;;;;;;;;;;;;;;;;103231;1337;41252;-45
2023/01/28 11:10:32;;;;;;;;;;;;;;;;;;102792;1334;43954;-45
2023/01/28 11:13:08;;;;;;;;;;;;;;;;;;102239;1334;896276;-49
2023/01/28 11:15:44;;;;;;;;;;;;;;;;;;102797;1334;39126;-46
2023/01/28 11:18:18;;;;;;;;;;;;;;;;;;102985;1328;41299;-47
2023/01/28 11:20:52;;;;;;;;;;;;;;;;;;103230;1327;175388;-48
2023/01/28 11:23:27;;;;;;;;;;;;;;;;;;103317;1335;42071;-49
2023/01/28 11:26:06;;;;;;;;;;;;;;;;;;103335;1337;39299;-45
2023/01/28 11:28:43;;;;;;;;;;;;;;;;;;103098;1334;42215;-48
2023/01/28 11:31:16;;;;;;;;;;;;;;;;;;102793;1334;44156;-49
2023/01/28 11:33:50;;;;;;;;;;;;;;;;;;102824;1334;43583;-45
2023/01/28 11:36:21;;;;;;;;;;;;;;;;;;102822;1335;39849;-44
2023/01/28 11:38:54;;;;;;;;;;;;;;;;;;102967;1328;41258;-46
2023/01/28 11:41:31;;;;;;;;;;;;;;;;;;103312;1327;45277;-46
2023/01/28 11:44:11;;;;;;;;;;;;;;;;;;103309;1327;42120;-46
2023/01/28 11:47:01;;;;;;;;;;;;;;;;;;103337;1327;39468;-47
2023/01/28 11:49:45;;;;;;;;;;;;;;;;;;102876;1328;175667;-48
2023/01/28 11:52:25;;;;;;;;;;;;;;;;;;102799;1349;45457;-49
2023/01/28 11:55:05;;;;;;;;;;;;;;;;;;102787;1343;42136;-48
2023/01/28 11:57:44;;;;;;;;;;;;;;;;;;102787;1334;39345;-45
2023/01/28 12:00:31;;;;;;;;;;;;;;;;;;103027;1331;41269;-45
2023/01/28 12:03:17;;;;;;;;;;;;;;;;;;102779;1344;44126;-46
2023/01/28 12:05:52;;;;;;;;;;;;;;;;;;102788;1344;42285;-46
2023/01/28 12:08:29;;;;;;;;;;;;;;;;;;102776;1344;39343;-46
2023/01/28 12:11:18;;;;;;;;;;;;;;;;;;103102;1331;41052;-47
2023/01/28 12:13:57;;;;;;;;;;;;;;;;;;103080;1331;43930;-45
2023/01/28 12:16:51;;;;;;;;;;;;;;;;;;103088;1337;42455;-47
2023/01/28 12:19:44;;;;;;;;;;;;;;;;;;103052;1335;39601;-45
2023/01/28 12:22:28;;;;;;;;;;;;;;;;;;102807;1334;41127;-46
2023/01/28 12:25:23;;;;;;;;;;;;;;;;;;102563;1344;44163;-45
2023/01/28 12:28:02;;;;;;;;;;;;;;;;;;102810;1334;42106;-45
2023/01/28 12:30:48;;;;;;;;;;;;;;;;;;103039;1334;39476;-47
2023/01/28 12:33:36;;;;;;;;;;;;;;;;;;103358;1337;41161;-45
2023/01/28 12:36:16;;;;;;;;;;;;;;;;;;103346;1328;44032;-46
2023/01/28 12:38:55;;;;;;;;;;;;;;;;;;103342;1344;42596;-44
2023/01/28 12:41:33;;;;;;;;;;;;;;;;;;102748;1334;46268;-45
2023/01/28 12:44:06;;;;;;;;;;;;;;;;;;102821;1334;40910;-45
2023/01/28 12:46:42;;;;;;;;;;;;;;;;;;102588;1334;283852;-45
2023/01/28 12:49:17;;;;;;;;;;;;;;;;;;102584;1344;42571;-46
2023/01/28 12:52:02;;;;;;;;;;;;;;;;;;103221;1330;44927;-45
2023/01/28 12:54:39;;;;;;;;;;;;;;;;;;103108;1330;40876;-45
2023/01/28 12:57:16;;;;;;;;;;;;;;;;;;103139;1330;43817;-44
2023/01/28 12:59:53;;;;;;;;;;;;;;;;;;102962;1331;175727;-44
2023/01/28 13:02:28;;;;;;;;;;;;;;;;;;102791;1341;45584;-44
2023/01/28 13:05:01;;;;;;;;;;;;;;;;;;102809;1334;43540;-46
2023/01/28 13:07:34;;;;;;;;;;;;;;;;;;102785;1334;44152;-48
2023/01/28 13:10:11;;;;;;;;;;;;;;;;;;102741;1334;43063;-44
2023/01/28 13:12:43;;;;;;;;;;;;;;;;;;102777;1343;46083;-45
2023/01/28 13:15:18;;;;;;;;;;;;;;;;;;102759;1335;42015;-45
2023/01/28 13:17:58;;;;;;;;;;;;;;;;;;102789;1344;44038;-45
2023/01/28 13:20:36;;;;;;;;;;;;;;;;;;102784;1334;42186;-45
2023/01/28 13:23:20;;;;;;;;;;;;;;;;;;102787;1339;46524;-45
2023/01/28 13:25:52;;;;;;;;;;;;;;;;;;102684;1334;175377;-48
2023/01/28 13:28:32;;;;;;;;;;;;;;;;;;102782;1334;43731;-44
2023/01/28 13:31:04;;;;;;;;;;;;;;;;;;102798;1331;43397;-45
2023/01/28 13:33:37;;;;;;;;;;;;;;;;;;103139;1331;39478;-46
2023/01/28 13:36:20;;;;;;;;;;;;;;;;;;103107;1331;40656;-45
2023/01/28 13:38:50;;;;;;;;;;;;;;;;;;103122;1343;44090;-44
2023/01/28 13:41:24;;;;;;;;;;;;;;;;;;103001;1334;42434;-47
2023/01/28 13:44:00;;;;;;;;;;;;;;;;;;102801;1334;40763;-45
2023/01/28 13:46:35;;;;;;;;;;;;;;;;;;102762;1334;40709;-47
2023/01/28 13:49:15;;;;;;;;;;;;;;;;;;102782;1334;43821;-45
2023/01/28 13:51:58;;;;;;;;;;;;;;;;;;102829;1331;43844;-45
2023/01/28 13:54:32;;;;;;;;;;;;;;;;;;103082;1331;39321;-39
2023/01/28 13:57:43;;;;;;;;;;;;;;;;;;103047;1340;40897;-39
2023/01/28 14:00:20;;;;;;;;;;;;;;;;;;102921;1345;44712;-39
2023/01/28 14:03:12;;;;;;;;;;;;;;;;;;102869;1331;42124;-37
2023/01/28 14:05:59;;;;;;;;;;;;;;;;;;102774;1334;40829;-37
2023/01/28 14:08:54;;;;;;;;;;;;;;;;;;102660;1334;194362;-37
2023/01/28 14:12:06;;;;;;;;;;;;;;;;;;102769;1336;44111;-38
2023/01/28 14:15:05;;;;;;;;;;;;;;;;;;103261;1327;49223;-38
2023/01/28 14:17:46;;;;;;;;;;;;;;;;;;103320;1337;39118;-41
2023/01/28 14:20:26;;;;;;;;;;;;;;;;;;103323;1338;40946;-40
2023/01/28 14:23:02;;;;;;;;;;;;;;;;;;103230;1334;44082;-39
2023/01/28 14:25:42;;;;;;;;;;;;;;;;;;102795;1334;43350;-40
2023/01/28 14:28:20;;;;;;;;;;;;;;;;;;102714;1333;39050;-40
2023/01/28 14:30:54;;;;;;;;;;;;;;;;;;102765;1344;40919;-41
2023/01/28 14:33:29;;;;;;;;;;;;;;;;;;102713;1335;43962;-42
2023/01/28 14:36:04;;;;;;;;;;;;;;;;;;102719;1334;177627;-43
2023/01/28 14:38:40;;;;;;;;;;;;;;;;;;102845;1333;39033;-44
2023/01/28 14:41:14;;;;;;;;;;;;;;;;;;102858;1335;40827;-43
2023/01/28 14:43:49;;;;;;;;;;;;;;;;;;102967;1333;44054;-39
2023/01/28 14:46:31;;;;;;;;;;;;;;;;;;102865;1328;42956;-42
2023/01/28 14:49:17;;;;;;;;;;;;;;;;;;102834;1334;39436;-39
2023/01/28 14:52:02;;;;;;;;;;;;;;;;;;102818;1335;42339;-39
2023/01/28 14:54:43;;;;;;;;;;;;;;;;;;102970;1340;45286;-39
2023/01/28 14:57:26;;;;;;;;;;;;;;;;;;103106;1331;42274;-42
2023/01/28 15:00:06;;;;;;;;;;;;;;;;;;103087;1329;39528;-42
2023/01/28 15:02:44;;;;;;;;;;;;;;;;;;103111;1330;41016;-40
2023/01/28 15:05:17;;;;;;;;;;;;;;;;;;102230;1334;895507;-41
2023/01/28 15:07:52;;;;;;;;;;;;;;;;;;102822;1334;42223;-41
2023/01/28 15:10:28;;;;;;;;;;;;;;;;;;102821;1346;39427;-41
2023/01/28 15:13:03;;;;;;;;;;;;;;;;;;102703;1334;40867;-42
2023/01/28 15:15:39;;;;;;;;;;;;;;;;;;103023;1331;43917;-42
2023/01/28 15:18:18;;;;;;;;;;;;;;;;;;103097;1339;42277;-40
2023/01/28 15:20:57;;;;;;;;;;;;;;;;;;103066;1331;39033;-44
2023/01/28 15:23:33;;;;;;;;;;;;;;;;;;103102;1331;41097;-39
2023/01/28 15:26:06;;;;;;;;;;;;;;;;;;102608;1337;175416;-42
2023/01/28 15:28:39;;;;;;;;;;;;;;;;;;102642;1337;42133;-38
2023/01/28 15:31:20;;;;;;;;;;;;;;;;;;102624;1347;39460;-39
2023/01/28 15:33:59;;;;;;;;;;;;;;;;;;102662;1336;40945;-40
2023/01/28 15:36:31;;;;;;;;;;;;;;;;;;102825;1340;51019;-40
2023/01/28 15:39:03;;;;;;;;;;;;;;;;;;102821;1349;42079;-39
2023/01/28 15:41:39;;;;;;;;;;;;;;;;;;102820;1339;38321;-40
2023/01/28 15:44:16;;;;;;;;;;;;;;;;;;102807;1334;42386;-39
2023/01/28 15:46:48;;;;;;;;;;;;;;;;;;103145;1331;51291;-40
2023/01/28 15:49:19;;;;;;;;;;;;;;;;;;103103;1338;42127;-39
2023/01/28 15:51:54;;;;;;;;;;;;;;;;;;103135;1331;39482;-39
2023/01/28 15:54:29;;;;;;;;;;;;;;;;;;103121;1331;41281;-39
2023/01/28 15:57:10;;;;;;;;;;;;;;;;;;102806;1335;50746;-39
2023/01/28 15:59:46;;;;;;;;;;;;;;;;;;102775;1334;43761;-39
2023/01/28 16:02:21;;;;;;;;;;;;;;;;;;102826;1344;39567;-39
2023/01/28 16:04:58;;;;;;;;;;;;;;;;;;102769;1331;41071;-39
2023/01/28 16:07:29;;;;;;;;;;;;;;;;;;103129;1331;45416;-39
2023/01/28 16:10:02;;;;;;;;;;;;;;;;;;103119;1330;42298;-39
2023/01/28 16:12:36;;;;;;;;;;;;;;;;;;103107;1329;39493;-39
2023/01/28 16:15:17;;;;;;;;;;;;;;;;;;103007;1334;41108;-43
2023/01/28 16:17:50;;;;;;;;;;;;;;;;;;102811;1335;44212;-43
2023/01/28 16:20:25;;;;;;;;;;;;;;;;;;102836;1333;43599;-44
2023/01/28 16:22:56;;;;;;;;;;;;;;;;;;102792;1341;39586;-46
2023/01/28 16:25:31;;;;;;;;;;;;;;;;;;102831;1328;41337;-43
2023/01/28 16:28:01;;;;;;;;;;;;;;;;;;103384;1328;44173;-44
2023/01/28 16:30:34;;;;;;;;;;;;;;;;;;103327;1327;42434;-44
2023/01/28 16:33:06;;;;;;;;;;;;;;;;;;103319;1327;39464;-39
2023/01/28 16:35:43;;;;;;;;;;;;;;;;;;103194;1327;42279;-39
2023/01/28 16:38:36;;;;;;;;;;;;;;;;;;102788;1334;45580;-39
2023/01/28 16:41:11;;;;;;;;;;;;;;;;;;102733;1340;44352;-39
2023/01/28 16:43:43;;;;;;;;;;;;;;;;;;102797;1334;39353;-40
2023/01/28 16:46:12;;;;;;;;;;;;;;;;;;102886;1328;41550;-39
2023/01/28 16:48:43;;;;;;;;;;;;;;;;;;103320;1336;43712;-39
2023/01/28 16:51:16;;;;;;;;;;;;;;;;;;103346;1327;43471;-40
2023/01/28 16:53:48;;;;;;;;;;;;;;;;;;103343;1327;39299;-39
2023/01/28 16:56:21;;;;;;;;;;;;;;;;;;103160;1327;41067;-39
2023/01/28 16:59:11;;;;;;;;;;;;;;;;;;102747;1344;44201;-39
2023/01/28 17:01:42;;;;;;;;;;;;;;;;;;102777;1334;42306;-40
2023/01/28 17:04:11;;;;;;;;;;;;;;;;;;102780;1335;38379;-40
2023/01/28 17:06:43;;;;;;;;;;;;;;;;;;102901;1337;40593;-39
2023/01/28 17:09:14;;;;;;;;;;;;;;;;;;103339;1328;44104;-40
2023/01/28 17:11:43;;;;;;;;;;;;;;;;;;103348;1337;41837;-39
2023/01/28 17:14:14;;;;;;;;;;;;;;;;;;103336;1327;39671;-39
2023/01/28 17:16:42;;;;;;;;;;;;;;;;;;103166;1336;40685;-39
2023/01/28 17:19:14;;;;;;;;;;;;;;;;;;102768;1334;43846;-39
2023/01/28 17:21:52;;;;;;;;;;;;;;;;;;102746;1332;42451;-39
2023/01/28 17:24:27;;;;;;;;;;;;;;;;;;102771;1343;39632;-40
2023/01/28 17:27:05;;;;;;;;;;;;;;;;;;102884;1328;41592;-39
2023/01/28 17:29:34;;;;;;;;;;;;;;;;;;103310;1328;44212;-39
2023/01/28 17:32:06;;;;;;;;;;;;;;;;;;103365;1328;41880;-39
2023/01/28 17:34:37;;;;;;;;;;;;;;;;;;103329;1327;39479;-40
2023/01/28 17:37:11;;;;;;;;;;;;;;;;;;103142;1328;40992;-39
2023/01/28 17:39:47;;;;;;;;;;;;;;;;;;102721;1342;44214;-39
2023/01/28 17:42:16;;;;;;;;;;;;;;;;;;102750;1344;42469;-40
2023/01/28 17:44:50;;;;;;;;;;;;;;;;;;102747;1334;39555;-39